createdAt,value
2023-02-17T00:01:02.954Z,7.73
2023-02-17T00:03:34.924Z,7.73
2023-02-17T00:06:10.910Z,7.72
2023-02-17T00:08:43.064Z,7.73
2023-02-17T00:11:15.391Z,7.73
2023-02-17T00:13:49.788Z,7.72
2023-02-17T00:16:23.453Z,7.70
2023-02-17T00:18:58.458Z,7.67
2023-02-17T00:21:32.226Z,7.68
2023-02-17T00:24:04.174Z,7.65
2023-02-17T00:26:38.236Z,7.65
2023-02-17T00:29:10.586Z,7.65
2023-02-17T00:31:42.495Z,7.64
2023-02-17T00:34:14.802Z,7.63
2023-02-17T00:36:46.790Z,7.61
2023-02-17T00:39:19.048Z,7.61
2023-02-17T00:41:54.210Z,7.60
2023-02-17T00:44:27.178Z,7.60
2023-02-17T00:46:58.925Z,7.58
2023-02-17T00:49:30.723Z,7.55
2023-02-17T00:52:03.607Z,7.57
2023-02-17T00:54:39.357Z,7.56
2023-02-17T00:57:09.545Z,7.58
2023-02-17T00:59:41.302Z,7.54
2023-02-17T01:02:13.651Z,7.50
2023-02-17T01:04:45.607Z,7.51
2023-02-17T01:07:20.040Z,7.50
2023-02-17T01:09:52.284Z,7.52
2023-02-17T01:12:24.166Z,7.50
2023-02-17T01:14:55.246Z,7.50
2023-02-17T01:17:28.917Z,7.39
2023-02-17T01:20:01.167Z,7.40
2023-02-17T01:22:32.998Z,7.42
2023-02-17T01:25:05.384Z,7.41
2023-02-17T01:27:38.322Z,7.44
2023-02-17T01:30:12.009Z,7.43
2023-02-17T01:32:44.132Z,7.45
2023-02-17T01:35:16.213Z,7.33
2023-02-17T01:37:49.863Z,7.34
2023-02-17T01:40:21.469Z,7.36
2023-02-17T01:42:53.483Z,7.40
2023-02-17T01:45:43.040Z,7.42
2023-02-17T01:48:18.794Z,7.42
2023-02-17T01:50:54.044Z,7.40
2023-02-17T01:53:31.672Z,7.42
2023-02-17T01:56:04.979Z,7.43
2023-02-17T01:58:39.130Z,7.41
2023-02-17T02:01:11.446Z,7.37
2023-02-17T02:03:43.433Z,7.38
2023-02-17T02:06:21.760Z,7.36
2023-02-17T02:09:00.493Z,7.35
2023-02-17T02:11:34.097Z,7.33
2023-02-17T02:14:08.963Z,7.34
2023-02-17T02:16:50.467Z,7.34
2023-02-17T02:19:53.313Z,7.35
2023-02-17T02:22:41.223Z,7.36
2023-02-17T02:25:29.690Z,7.30
2023-02-17T02:28:16.269Z,7.29
2023-02-17T02:31:15.189Z,7.26
2023-02-17T02:33:51.736Z,7.33
2023-02-17T02:36:29.661Z,7.33
2023-02-17T02:39:05.722Z,7.34
2023-02-17T02:41:42.272Z,7.33
2023-02-17T02:44:19.834Z,7.31
2023-02-17T02:47:00.971Z,7.30
2023-02-17T02:49:35.276Z,7.29
2023-02-17T02:52:17.205Z,7.32
2023-02-17T02:55:00.308Z,7.32
2023-02-17T02:57:48.568Z,7.31
2023-02-17T03:00:26.164Z,7.30
2023-02-17T03:03:04.054Z,7.30
2023-02-17T03:05:45.721Z,7.26
2023-02-17T03:08:21.296Z,7.31
2023-02-17T03:10:55.383Z,7.32
2023-02-17T03:13:27.891Z,7.35
2023-02-17T03:15:59.839Z,7.39
2023-02-17T03:18:34.553Z,7.42
2023-02-17T03:21:15.373Z,7.43
2023-02-17T03:23:47.427Z,7.40
2023-02-17T03:26:19.191Z,7.34
2023-02-17T03:28:51.177Z,7.34
2023-02-17T03:31:23.550Z,7.35
2023-02-17T03:33:54.165Z,7.35
2023-02-17T03:36:26.051Z,7.32
2023-02-17T03:38:58.142Z,7.34
2023-02-17T03:41:30.119Z,7.39
2023-02-17T03:44:01.838Z,7.37
2023-02-17T03:46:33.625Z,7.38
2023-02-17T03:49:05.330Z,7.38
2023-02-17T03:51:37.222Z,7.41
2023-02-17T03:54:08.975Z,7.41
2023-02-17T03:56:47.906Z,7.31
2023-02-17T03:59:19.781Z,7.30
2023-02-17T04:01:51.522Z,7.32
2023-02-17T04:04:23.328Z,7.33
2023-02-17T04:06:55.099Z,7.33
2023-02-17T04:09:26.923Z,7.13
2023-02-17T04:11:58.892Z,7.13
2023-02-17T04:14:31.295Z,7.19
2023-02-17T04:17:05.985Z,7.21
2023-02-17T04:19:37.870Z,7.22
2023-02-17T04:22:09.788Z,7.23
2023-02-17T04:24:43.601Z,7.21
2023-02-17T04:27:15.357Z,7.13
2023-02-17T04:29:47.000Z,7.08
2023-02-17T04:32:18.978Z,7.06
2023-02-17T04:34:50.720Z,7.07
2023-02-17T04:37:22.542Z,7.06
2023-02-17T04:39:54.573Z,7.07
2023-02-17T04:42:26.541Z,7.08
2023-02-17T04:44:58.280Z,7.08
2023-02-17T04:47:30.466Z,7.04
2023-02-17T04:50:02.503Z,7.04
2023-02-17T04:52:34.222Z,7.04
2023-02-17T04:55:07.406Z,7.04
2023-02-17T04:57:39.134Z,7.05
2023-02-17T05:00:13.429Z,7.06
2023-02-17T05:02:45.142Z,7.06
2023-02-17T05:05:18.890Z,7.08
2023-02-17T05:07:50.897Z,7.02
2023-02-17T05:10:24.142Z,6.91
2023-02-17T05:12:56.350Z,6.89
2023-02-17T05:15:28.083Z,6.87
2023-02-17T05:17:59.812Z,6.91
2023-02-17T05:20:31.852Z,6.95
2023-02-17T05:23:03.619Z,6.96
2023-02-17T05:25:35.421Z,6.91
2023-02-17T05:28:07.200Z,6.94
2023-02-17T05:30:38.916Z,6.93
2023-02-17T05:33:10.657Z,6.88
2023-02-17T05:35:42.382Z,6.90
2023-02-17T05:38:14.197Z,6.88
2023-02-17T05:40:46.048Z,6.85
2023-02-17T05:43:17.942Z,6.83
2023-02-17T05:45:49.660Z,6.83
2023-02-17T05:48:21.397Z,6.80
2023-02-17T05:50:53.123Z,6.81
2023-02-17T05:53:24.950Z,6.86
2023-02-17T05:55:56.886Z,6.88
2023-02-17T05:58:28.656Z,6.84
2023-02-17T06:01:00.770Z,6.87
2023-02-17T06:03:32.950Z,6.90
2023-02-17T06:06:05.553Z,6.89
2023-02-17T06:08:39.277Z,6.89
2023-02-17T06:11:11.532Z,6.85
2023-02-17T06:13:43.467Z,6.78
2023-02-17T06:16:15.591Z,6.83
2023-02-17T06:18:47.340Z,6.84
2023-02-17T06:21:19.114Z,6.83
2023-02-17T06:23:50.844Z,6.82
2023-02-17T06:26:22.577Z,6.83
2023-02-17T06:28:54.682Z,6.79
2023-02-17T06:31:27.106Z,6.84
2023-02-17T06:33:59.020Z,6.85
2023-02-17T06:36:30.799Z,6.83
2023-02-17T06:39:02.471Z,6.82
2023-02-17T06:41:34.714Z,6.84
2023-02-17T06:44:06.984Z,6.82
2023-02-17T06:46:38.775Z,6.78
2023-02-17T06:49:10.529Z,6.85
2023-02-17T06:51:42.626Z,6.90
2023-02-17T06:54:14.677Z,6.88
2023-02-17T06:56:46.484Z,6.94
2023-02-17T06:59:18.606Z,6.89
2023-02-17T07:01:50.788Z,6.91
2023-02-17T07:04:22.630Z,6.93
2023-02-17T07:06:54.420Z,6.96
2023-02-17T07:09:26.223Z,7.02
2023-02-17T07:11:58.705Z,7.05
2023-02-17T07:14:30.988Z,7.03
2023-02-17T07:17:03.329Z,6.97
2023-02-17T07:19:35.171Z,6.97
2023-02-17T07:22:06.978Z,6.95
2023-02-17T07:24:38.781Z,7.01
2023-02-17T07:27:11.022Z,7.07
2023-02-17T07:29:43.440Z,7.02
2023-02-17T07:32:15.123Z,7.01
2023-02-17T07:34:46.882Z,7.05
2023-02-17T07:37:20.044Z,7.01
2023-02-17T07:39:52.328Z,7.02
2023-02-17T07:42:24.490Z,7.08
2023-02-17T07:44:57.669Z,7.14
2023-02-17T07:47:30.142Z,7.16
2023-02-17T07:50:02.000Z,7.17
2023-02-17T07:52:35.509Z,7.19
2023-02-17T07:55:07.894Z,7.23
2023-02-17T07:57:39.561Z,7.25
2023-02-17T08:00:13.456Z,7.23
2023-02-17T08:02:46.049Z,7.24
2023-02-17T08:05:18.134Z,7.25
2023-02-17T08:08:09.850Z,7.27
2023-02-17T08:11:14.791Z,7.27
2023-02-17T08:13:47.486Z,7.29
2023-02-17T08:16:19.526Z,7.31
2023-02-17T08:18:51.271Z,7.24
2023-02-17T08:21:23.264Z,7.18
2023-02-17T08:23:56.162Z,7.15
2023-02-17T08:26:28.766Z,7.20
2023-02-17T08:29:00.885Z,7.19
2023-02-17T08:31:36.188Z,7.21
2023-02-17T08:34:09.924Z,7.23
2023-02-17T08:36:42.649Z,7.22
2023-02-17T08:39:17.582Z,7.24
2023-02-17T08:41:49.701Z,7.28
2023-02-17T08:44:22.961Z,7.32
2023-02-17T08:46:55.207Z,7.31
2023-02-17T08:49:30.092Z,7.36
2023-02-17T08:52:02.313Z,7.30
2023-02-17T08:54:34.727Z,7.33
2023-02-17T08:57:06.514Z,7.37
2023-02-17T08:59:38.440Z,7.41
2023-02-17T09:02:11.612Z,7.43
2023-02-17T09:04:44.317Z,7.45
2023-02-17T09:07:16.002Z,7.49
2023-02-17T09:09:47.911Z,7.52
2023-02-17T09:12:20.200Z,7.52
2023-02-17T09:14:52.300Z,7.48
2023-02-17T09:17:25.881Z,7.51
2023-02-17T09:19:57.867Z,7.53
2023-02-17T09:22:32.238Z,7.54
2023-02-17T09:25:05.017Z,7.57
2023-02-17T09:27:36.749Z,7.56
2023-02-17T09:30:11.203Z,7.56
2023-02-17T09:32:44.820Z,7.60
2023-02-17T09:35:18.640Z,7.58
2023-02-17T09:37:50.501Z,7.62
2023-02-17T09:40:25.664Z,7.69
2023-02-17T09:42:57.595Z,7.68
2023-02-17T09:45:35.022Z,7.72
2023-02-17T09:48:11.947Z,7.77
2023-02-17T09:50:46.675Z,7.78
2023-02-17T09:53:25.074Z,7.84
2023-02-17T09:55:59.171Z,7.84
2023-02-17T09:58:37.434Z,7.90
2023-02-17T10:01:12.820Z,7.95
2023-02-17T10:03:50.667Z,7.97
2023-02-17T10:06:27.014Z,7.96
2023-02-17T10:09:04.231Z,7.98
2023-02-17T10:11:39.220Z,8.02
2023-02-17T10:14:16.877Z,8.06
2023-02-17T10:16:54.645Z,8.09
2023-02-17T10:19:31.278Z,8.13
2023-02-17T10:22:08.045Z,8.12
2023-02-17T10:24:40.156Z,8.17
2023-02-17T10:27:25.846Z,8.20
2023-02-17T10:30:10.841Z,8.24
2023-02-17T10:32:55.260Z,8.27
2023-02-17T10:35:34.040Z,8.24
2023-02-17T10:38:15.874Z,8.26
2023-02-17T10:40:51.060Z,8.29
2023-02-17T10:43:29.936Z,8.31
2023-02-17T10:46:04.109Z,8.36
2023-02-17T10:48:41.844Z,8.38
2023-02-17T10:51:18.709Z,8.38
2023-02-17T10:53:53.964Z,8.40
2023-02-17T10:56:31.272Z,8.42
2023-02-17T10:59:08.882Z,8.45
2023-02-17T11:01:42.660Z,8.49
2023-02-17T11:04:15.472Z,8.50
2023-02-17T11:06:51.168Z,8.56
2023-02-17T11:09:32.854Z,8.60
2023-02-17T11:12:11.270Z,8.65
2023-02-17T11:14:49.190Z,8.67
2023-02-17T11:17:31.070Z,8.69
2023-02-17T11:20:06.181Z,8.72
2023-02-17T11:22:41.704Z,8.78
2023-02-17T11:25:25.740Z,8.80
2023-02-17T11:27:59.541Z,8.80
2023-02-17T11:30:34.951Z,8.81
2023-02-17T11:33:22.498Z,8.75
2023-02-17T11:35:56.293Z,8.84
2023-02-17T11:38:31.734Z,8.86
2023-02-17T11:41:06.825Z,8.90
2023-02-17T11:43:39.237Z,8.92
2023-02-17T11:46:29.332Z,8.92
2023-02-17T11:49:21.596Z,8.95
2023-02-17T11:52:04.865Z,8.94
2023-02-17T11:54:48.836Z,8.93
2023-02-17T11:57:34.348Z,8.99
2023-02-17T12:00:17.272Z,8.95
2023-02-17T12:03:04.818Z,8.95
2023-02-17T12:05:47.811Z,8.99
2023-02-17T12:08:27.376Z,9.01
2023-02-17T12:11:09.179Z,9.04
2023-02-17T12:13:53.605Z,9.06
2023-02-17T12:16:36.973Z,9.07
2023-02-17T12:19:25.909Z,9.10
2023-02-17T12:22:10.190Z,9.14
2023-02-17T12:24:54.054Z,9.15
2023-02-17T12:27:39.494Z,9.14
2023-02-17T12:30:27.657Z,9.17
2023-02-17T12:33:35.396Z,9.17
2023-02-17T12:36:11.616Z,9.16
2023-02-17T12:38:49.351Z,9.13
2023-02-17T12:41:27.389Z,9.16
2023-02-17T12:44:02.940Z,9.17
2023-02-17T12:46:39.819Z,9.19
2023-02-17T12:49:18.396Z,9.23
2023-02-17T12:51:54.013Z,9.26
2023-02-17T12:54:33.894Z,9.26
2023-02-17T12:57:17.234Z,9.27
2023-02-17T12:59:51.276Z,9.27
2023-02-17T13:02:24.861Z,9.28
2023-02-17T13:05:00.500Z,9.29
2023-02-17T13:07:47.381Z,9.32
2023-02-17T13:10:30.026Z,9.30
2023-02-17T13:13:06.421Z,9.31
2023-02-17T13:15:42.821Z,9.32
2023-02-17T13:18:29.401Z,9.32
2023-02-17T13:21:16.100Z,9.34
2023-02-17T13:23:59.998Z,9.35
2023-02-17T13:26:34.761Z,9.34
2023-02-17T13:29:35.230Z,9.34
2023-02-17T13:32:10.614Z,9.34
2023-02-17T13:34:44.649Z,9.35
2023-02-17T13:37:25.141Z,9.34
2023-02-17T13:39:57.606Z,9.34
2023-02-17T13:42:42.100Z,9.33
2023-02-17T13:45:27.858Z,9.33
2023-02-17T13:48:01.603Z,9.32
2023-02-17T13:50:36.283Z,9.33
2023-02-17T13:53:24.692Z,9.31
2023-02-17T13:55:58.496Z,9.32
2023-02-17T13:58:33.098Z,9.29
2023-02-17T14:01:07.786Z,9.32
2023-02-17T14:03:48.008Z,9.32
2023-02-17T14:06:26.869Z,9.33
2023-02-17T14:08:59.664Z,9.31
2023-02-17T14:11:33.085Z,9.31
2023-02-17T14:14:07.675Z,9.29
2023-02-17T14:16:43.409Z,9.26
2023-02-17T14:19:18.316Z,9.30
2023-02-17T14:22:00.925Z,9.30
2023-02-17T14:24:36.146Z,9.32
2023-02-17T14:27:13.928Z,9.35
2023-02-17T14:29:48.552Z,9.37
2023-02-17T14:32:31.942Z,9.37
2023-02-17T14:35:20.955Z,9.39
2023-02-17T14:37:53.131Z,9.39
2023-02-17T14:40:26.205Z,9.41
2023-02-17T14:42:57.979Z,9.43
2023-02-17T14:45:29.721Z,9.43
2023-02-17T14:48:01.513Z,9.42
2023-02-17T14:50:34.458Z,9.43
2023-02-17T14:53:11.103Z,9.45
2023-02-17T14:55:47.056Z,9.47
2023-02-17T14:58:25.588Z,9.49
2023-02-17T15:00:57.676Z,9.49
2023-02-17T15:03:29.918Z,9.52
2023-02-17T15:06:02.604Z,9.53
2023-02-17T15:08:36.149Z,9.53
2023-02-17T15:11:12.549Z,9.53
2023-02-17T15:13:44.372Z,9.54
2023-02-17T15:16:16.810Z,9.55
2023-02-17T15:18:50.874Z,9.55
2023-02-17T15:21:29.919Z,9.60
2023-02-17T15:24:03.486Z,9.62
2023-02-17T15:26:35.516Z,9.65
2023-02-17T15:29:07.316Z,9.66
2023-02-17T15:31:39.406Z,9.65
2023-02-17T15:34:16.738Z,9.68
2023-02-17T15:36:48.970Z,9.72
2023-02-17T15:39:22.190Z,9.75
2023-02-17T15:41:57.259Z,9.77
2023-02-17T15:44:36.392Z,9.79
2023-02-17T15:47:13.358Z,9.83
2023-02-17T15:49:45.880Z,9.85
2023-02-17T15:52:17.646Z,9.88
2023-02-17T15:54:49.857Z,9.90
2023-02-17T15:57:25.626Z,9.92
2023-02-17T15:59:58.174Z,9.94
2023-02-17T16:02:31.411Z,9.95
2023-02-17T16:05:03.646Z,9.96
2023-02-17T16:07:36.371Z,9.99
2023-02-17T16:10:12.598Z,9.99
2023-02-17T16:12:45.010Z,10.00
2023-02-17T16:15:19.742Z,10.02
2023-02-17T16:17:52.108Z,10.05
2023-02-17T16:20:26.519Z,10.07
2023-02-17T16:22:58.415Z,10.08
2023-02-17T16:25:31.135Z,10.11
2023-02-17T16:28:01.949Z,10.14
2023-02-17T16:30:36.549Z,10.17
2023-02-17T16:33:10.906Z,10.19
2023-02-17T16:35:45.041Z,10.28
2023-02-17T16:38:23.034Z,10.34
2023-02-17T16:40:55.375Z,10.36
2023-02-17T16:43:30.547Z,10.40
2023-02-17T16:46:04.903Z,10.44
2023-02-17T16:48:38.097Z,10.49
2023-02-17T16:51:10.068Z,10.51
2023-02-17T16:53:41.836Z,10.54
2023-02-17T16:56:19.674Z,10.56
2023-02-17T16:58:51.557Z,10.58
2023-02-17T17:01:24.308Z,10.60
2023-02-17T17:03:56.522Z,10.60
2023-02-17T17:06:30.627Z,10.64
2023-02-17T17:09:02.538Z,10.67
2023-02-17T17:11:34.639Z,10.70
2023-02-17T17:14:06.472Z,10.75
2023-02-17T17:16:40.068Z,10.78
2023-02-17T17:19:14.003Z,10.82
2023-02-17T17:21:45.727Z,10.85
2023-02-17T17:24:18.606Z,10.87
2023-02-17T17:26:51.806Z,10.91
2023-02-17T17:29:24.354Z,10.94
2023-02-17T17:31:56.252Z,10.96
2023-02-17T17:34:28.539Z,10.96
2023-02-17T17:37:00.562Z,10.97
2023-02-17T17:39:32.367Z,10.98
2023-02-17T17:42:04.261Z,10.99
2023-02-17T17:44:36.001Z,10.99
2023-02-17T17:47:21.334Z,10.97
2023-02-17T17:50:00.243Z,10.96
2023-02-17T17:52:32.386Z,10.95
2023-02-17T17:55:04.305Z,10.96
2023-02-17T17:57:36.155Z,10.95
2023-02-17T18:00:11.048Z,10.96
2023-02-17T18:02:47.210Z,10.97
2023-02-17T18:05:19.678Z,11.00
2023-02-17T18:07:53.354Z,11.03
2023-02-17T18:10:25.186Z,11.05
2023-02-17T18:12:57.130Z,11.08
2023-02-17T18:15:29.208Z,11.11
2023-02-17T18:18:01.009Z,11.13
2023-02-17T18:20:33.208Z,11.16
2023-02-17T18:23:05.456Z,11.17
2023-02-17T18:25:37.223Z,11.20
2023-02-17T18:28:09.019Z,11.24
2023-02-17T18:30:40.884Z,11.29
2023-02-17T18:33:14.498Z,11.32
2023-02-17T18:35:46.589Z,11.35
2023-02-17T18:38:19.549Z,11.37
2023-02-17T18:40:52.003Z,11.42
2023-02-17T18:43:24.072Z,11.45
2023-02-17T18:45:55.900Z,11.48
2023-02-17T18:48:27.784Z,11.48
2023-02-17T18:50:59.535Z,11.50
2023-02-17T18:53:31.767Z,11.51
2023-02-17T18:56:03.546Z,11.52
2023-02-17T18:58:35.326Z,11.56
2023-02-17T19:01:07.777Z,11.58
2023-02-17T19:03:39.600Z,11.60
2023-02-17T19:06:16.934Z,11.61
2023-02-17T19:08:50.259Z,11.65
2023-02-17T19:11:24.234Z,11.65
2023-02-17T19:13:56.328Z,11.64
2023-02-17T19:16:31.076Z,11.57
2023-02-17T19:19:03.955Z,11.49
2023-02-17T19:21:36.553Z,11.44
2023-02-17T19:24:09.400Z,11.42
2023-02-17T19:26:41.457Z,11.41
2023-02-17T19:29:13.555Z,11.39
2023-02-17T19:31:45.884Z,11.28
2023-02-17T19:34:19.918Z,11.10
2023-02-17T19:36:52.029Z,10.95
2023-02-17T19:39:24.619Z,10.84
2023-02-17T19:41:55.377Z,10.72
2023-02-17T19:44:27.251Z,10.61
2023-02-17T19:46:59.071Z,10.49
2023-02-17T19:49:31.030Z,10.20
2023-02-17T19:52:02.718Z,10.14
2023-02-17T19:54:34.504Z,10.12
2023-02-17T19:57:06.851Z,10.11
2023-02-17T19:59:39.082Z,10.13
2023-02-17T20:02:16.198Z,10.19
2023-02-17T20:04:47.992Z,10.11
2023-02-17T20:07:20.017Z,10.09
2023-02-17T20:09:52.047Z,10.07
2023-02-17T20:12:24.211Z,10.05
2023-02-17T20:14:56.353Z,9.98
2023-02-17T20:17:28.123Z,9.90
2023-02-17T20:20:00.408Z,9.80
2023-02-17T20:22:32.259Z,9.78
2023-02-17T20:25:04.568Z,9.76
2023-02-17T20:27:36.675Z,9.71
2023-02-17T20:30:10.642Z,9.71
2023-02-17T20:32:42.785Z,9.70
2023-02-17T20:35:16.499Z,9.65
2023-02-17T20:37:48.634Z,9.63
2023-02-17T20:40:21.870Z,9.61
2023-02-17T20:42:54.202Z,9.59
2023-02-17T20:45:26.261Z,9.54
2023-02-17T20:47:58.440Z,9.53
2023-02-17T20:50:30.800Z,9.45
2023-02-17T20:53:03.229Z,9.44
2023-02-17T20:55:35.324Z,9.42
2023-02-17T20:58:07.636Z,9.39
2023-02-17T21:00:40.721Z,9.38
2023-02-17T21:03:12.696Z,9.38
2023-02-17T21:05:44.838Z,9.38
2023-02-17T21:08:19.160Z,9.37
2023-02-17T21:10:51.476Z,9.33
2023-02-17T21:13:23.857Z,9.32
2023-02-17T21:15:56.063Z,9.31
2023-02-17T21:18:27.955Z,9.31
2023-02-17T21:20:59.703Z,9.27
2023-02-17T21:23:31.732Z,9.28
2023-02-17T21:26:03.783Z,9.30
2023-02-17T21:28:36.092Z,9.31
2023-02-17T21:31:08.586Z,9.32
2023-02-17T21:33:42.241Z,9.30
2023-02-17T21:36:17.539Z,9.29
2023-02-17T21:38:49.877Z,9.26
2023-02-17T21:41:24.033Z,9.24
2023-02-17T21:44:13.757Z,9.20
2023-02-17T21:46:46.539Z,9.22
2023-02-17T21:49:18.512Z,9.15
2023-02-17T21:51:50.552Z,9.13
2023-02-17T21:54:23.392Z,9.09
2023-02-17T21:56:57.468Z,9.06
2023-02-17T21:59:29.500Z,9.00
2023-02-17T22:02:01.273Z,8.98
2023-02-17T22:04:33.069Z,8.93
2023-02-17T22:07:04.866Z,8.89
2023-02-17T22:09:36.897Z,8.84
2023-02-17T22:12:08.163Z,8.84
2023-02-17T22:14:40.199Z,8.83
2023-02-17T22:17:11.907Z,8.78
2023-02-17T22:19:43.764Z,8.76
2023-02-17T22:22:15.520Z,8.80
2023-02-17T22:24:47.479Z,8.80
2023-02-17T22:27:19.541Z,8.81
2023-02-17T22:29:51.423Z,8.80
2023-02-17T22:32:23.125Z,8.78
2023-02-17T22:34:54.826Z,8.73
2023-02-17T22:37:26.708Z,8.71
2023-02-17T22:39:59.344Z,8.66
2023-02-17T22:42:29.894Z,8.63
2023-02-17T22:45:01.680Z,8.61
2023-02-17T22:47:33.815Z,8.57
2023-02-17T22:50:06.512Z,8.53
2023-02-17T22:52:38.595Z,8.51
2023-02-17T22:55:10.583Z,8.50
2023-02-17T22:57:42.530Z,8.51
2023-02-17T23:00:16.563Z,8.47
2023-02-17T23:02:48.543Z,8.45
2023-02-17T23:05:20.917Z,8.44
2023-02-17T23:07:53.584Z,8.43
2023-02-17T23:10:24.013Z,8.42
2023-02-17T23:12:55.979Z,8.42
2023-02-17T23:15:40.217Z,8.42
2023-02-17T23:18:14.732Z,8.38
2023-02-17T23:20:49.627Z,8.42
2023-02-17T23:23:24.388Z,8.42
2023-02-17T23:25:57.940Z,8.35
2023-02-17T23:28:29.734Z,8.35
2023-02-17T23:31:01.500Z,8.36
2023-02-17T23:33:33.215Z,8.35
2023-02-17T23:36:08.477Z,8.31
2023-02-17T23:38:40.441Z,8.29
2023-02-17T23:41:13.006Z,8.31
2023-02-17T23:43:43.316Z,8.29
2023-02-17T23:46:15.294Z,8.28
2023-02-17T23:48:47.264Z,8.23
2023-02-17T23:51:20.167Z,8.21
2023-02-17T23:53:52.204Z,8.21
2023-02-17T23:56:26.561Z,8.20
2023-02-17T23:58:58.299Z,8.17
